Terminal Aerodrome Forecast
Issued by NWS Pittsburgh, PA

Current Version | Previous Version | Graphics & Text | Print | Product List | Glossary On
Versions: 1 2 3 4 5 6 7 8 9 10 11 12 13 14 15 16 17 18 19 20 21 22 23 24 25 26 27 28 29 30 31 32 33 34 35 36 37 38 39 40
000
FTUS41 KPBZ 301511 AAE
TAFPIT
TAF AMD
KPIT 301511Z 3015/3118 14005KT 2SM -TSRA BKN025CB
     FM301700 16004KT P6SM BKN040
     FM302000 15003KT P6SM VCSH BKN050
     FM310100 00000KT P6SM BKN200
     FM311500 22004KT P6SM BKN060=

USA.gov is the U.S. government's official web portal to all federal, state and local government web resources and services.